createdAt,value
2024-04-15T00:00:09.328Z,9.43
2024-04-15T00:02:40.920Z,7.00
2024-04-15T00:05:08.323Z,10.00
2024-04-15T00:07:35.744Z,8.00
2024-04-15T00:10:04.966Z,9.18
2024-04-15T00:12:32.496Z,11.05
2024-04-15T00:15:00.141Z,10.20
2024-04-15T00:17:28.239Z,8.15
2024-04-15T00:19:55.628Z,11.93
2024-04-15T00:22:23.011Z,7.38
2024-04-15T00:24:50.435Z,8.68
2024-04-15T00:27:17.753Z,7.50
2024-04-15T00:29:45.115Z,10.13
2024-04-15T00:32:12.466Z,9.32
2024-04-15T00:34:39.853Z,7.97
2024-04-15T00:37:07.293Z,10.10
2024-04-15T00:39:34.793Z,11.15
2024-04-15T00:42:02.758Z,7.50
2024-04-15T00:44:36.199Z,10.00
2024-04-15T00:47:05.455Z,13.18
2024-04-15T00:49:35.188Z,9.10
2024-04-15T00:52:05.178Z,8.27
2024-04-15T00:54:34.134Z,8.68
2024-04-15T00:57:03.202Z,9.00
2024-04-15T00:59:32.510Z,11.35
2024-04-15T01:02:00.454Z,7.75
2024-04-15T01:04:28.171Z,7.00
2024-04-15T01:06:56.381Z,8.20
2024-04-15T01:09:24.554Z,7.70
2024-04-15T01:11:52.407Z,6.55
2024-04-15T01:14:20.953Z,8.07
2024-04-15T01:16:49.830Z,7.30
2024-04-15T01:19:17.507Z,10.35
2024-04-15T01:21:45.083Z,8.30
2024-04-15T01:24:12.864Z,11.85
2024-04-15T01:26:46.778Z,9.63
2024-04-15T01:29:14.735Z,8.93
2024-04-15T01:31:42.171Z,8.98
2024-04-15T01:34:09.494Z,8.35
2024-04-15T01:36:37.444Z,10.38
2024-04-15T01:39:04.819Z,11.95
2024-04-15T01:41:32.154Z,10.30
2024-04-15T01:43:59.454Z,8.35
2024-04-15T01:46:26.931Z,11.10
2024-04-15T01:48:55.219Z,7.60
2024-04-15T01:51:22.600Z,8.93
2024-04-15T01:53:50.308Z,7.93
2024-04-15T01:56:17.744Z,9.82
2024-04-15T01:58:45.046Z,8.05
2024-04-15T02:01:13.413Z,10.95
2024-04-15T02:03:42.377Z,7.97
2024-04-15T02:06:11.287Z,8.75
2024-04-15T02:08:38.558Z,10.68
2024-04-15T02:11:05.975Z,11.93
2024-04-15T02:13:33.517Z,11.05
2024-04-15T02:16:00.946Z,9.48
2024-04-15T02:18:28.510Z,10.90
2024-04-15T02:20:56.046Z,12.15
2024-04-15T02:23:23.861Z,12.10
2024-04-15T02:25:52.429Z,14.10
2024-04-15T02:28:19.959Z,12.95
2024-04-15T02:30:51.561Z,11.55
2024-04-15T02:33:20.030Z,11.38
2024-04-15T02:35:47.584Z,12.80
2024-04-15T02:38:14.903Z,16.77
2024-04-15T02:40:43.699Z,14.13
2024-04-15T02:43:11.807Z,12.00
2024-04-15T02:45:39.158Z,19.73
2024-04-15T02:48:06.888Z,12.43
2024-04-15T02:50:34.200Z,11.98
2024-04-15T02:53:01.659Z,12.68
2024-04-15T02:55:29.033Z,17.63
2024-04-15T02:57:57.679Z,12.88
2024-04-15T03:00:26.072Z,11.40
2024-04-15T03:02:53.578Z,10.10
2024-04-15T03:05:22.463Z,7.03
2024-04-15T03:07:49.846Z,6.43
2024-04-15T03:10:17.435Z,8.07
2024-04-15T03:12:50.124Z,11.55
2024-04-15T03:15:17.643Z,10.35
2024-04-15T03:17:49.171Z,10.55
2024-04-15T03:20:16.958Z,10.20
2024-04-15T03:22:51.471Z,11.25
2024-04-15T03:25:20.354Z,6.97
2024-04-15T03:27:49.491Z,9.75
2024-04-15T03:30:17.618Z,9.43
2024-04-15T03:32:45.252Z,10.27
2024-04-15T03:35:16.412Z,11.77
2024-04-15T03:37:44.167Z,13.32
2024-04-15T03:40:12.230Z,11.57
2024-04-15T03:42:39.746Z,16.90
2024-04-15T03:45:07.820Z,20.05
2024-04-15T03:47:35.409Z,25.40
2024-04-15T03:50:02.878Z,20.92
2024-04-15T03:52:32.278Z,11.93
2024-04-15T03:54:59.938Z,17.38
2024-04-15T03:57:27.535Z,17.08
2024-04-15T03:59:55.307Z,33.05
2024-04-15T04:02:22.605Z,28.88
2024-04-15T04:04:50.125Z,25.90
2024-04-15T04:07:19.141Z,14.10
2024-04-15T04:09:47.024Z,18.98
2024-04-15T04:12:14.632Z,17.05
2024-04-15T04:14:43.738Z,16.20
2024-04-15T04:17:11.650Z,14.57
2024-04-15T04:19:38.992Z,14.65
2024-04-15T04:22:06.392Z,18.83
2024-04-15T04:24:34.385Z,19.98
2024-04-15T04:27:02.380Z,17.67
2024-04-15T04:29:29.745Z,29.50
2024-04-15T04:31:57.206Z,22.30
2024-04-15T04:34:24.592Z,17.90
2024-04-15T04:36:52.472Z,20.15
2024-04-15T04:39:19.892Z,16.75
2024-04-15T04:41:47.342Z,15.95
2024-04-15T04:44:14.976Z,19.52
2024-04-15T04:46:45.482Z,18.83
2024-04-15T04:49:13.972Z,17.60
2024-04-15T04:51:41.325Z,21.48
2024-04-15T04:54:08.828Z,16.80
2024-04-15T04:56:36.697Z,16.15
2024-04-15T04:59:04.150Z,22.17
2024-04-15T05:01:31.918Z,19.63
2024-04-15T05:03:59.775Z,17.05
2024-04-15T05:06:27.098Z,17.42
2024-04-15T05:08:54.531Z,14.27
2024-04-15T05:11:21.878Z,18.35
2024-04-15T05:13:50.650Z,16.70
2024-04-15T05:16:18.272Z,12.90
2024-04-15T05:18:46.039Z,12.20
2024-04-15T05:21:19.029Z,25.27
2024-04-15T05:23:46.642Z,18.80
2024-04-15T05:26:14.138Z,21.98
2024-04-15T05:28:41.930Z,17.65
2024-04-15T05:31:09.310Z,20.35
2024-04-15T05:33:36.652Z,22.05
2024-04-15T05:36:04.201Z,20.00
2024-04-15T05:38:31.503Z,22.65
2024-04-15T05:40:58.933Z,16.95
2024-04-15T05:43:27.346Z,26.00
2024-04-15T05:45:56.142Z,23.13
2024-04-15T05:48:23.808Z,22.10
2024-04-15T05:50:51.209Z,19.67
2024-04-15T05:53:19.464Z,22.45
2024-04-15T05:55:46.872Z,25.52
2024-04-15T05:58:14.436Z,29.23
2024-04-15T06:00:41.793Z,26.55
2024-04-15T06:03:09.229Z,23.05
2024-04-15T06:05:37.050Z,31.25
2024-04-15T06:08:06.774Z,19.88
2024-04-15T06:10:35.311Z,20.70
2024-04-15T06:13:02.609Z,13.95
2024-04-15T06:15:37.660Z,17.85
2024-04-15T06:18:06.886Z,19.60
2024-04-15T06:20:34.466Z,25.38
2024-04-15T06:23:02.111Z,21.15
2024-04-15T06:25:29.438Z,25.83
2024-04-15T06:27:56.765Z,14.98
2024-04-15T06:30:24.319Z,19.00
2024-04-15T06:32:52.487Z,22.48
2024-04-15T06:35:20.116Z,27.08
2024-04-15T06:37:47.678Z,14.85
2024-04-15T06:40:15.147Z,15.32
2024-04-15T06:42:42.679Z,14.32
2024-04-15T06:45:10.209Z,20.67
2024-04-15T06:47:37.646Z,27.35
2024-04-15T06:50:07.584Z,21.60
2024-04-15T06:52:34.981Z,22.42
2024-04-15T06:55:03.178Z,16.45
2024-04-15T06:57:31.821Z,16.77
2024-04-15T06:59:59.375Z,12.02
2024-04-15T07:02:26.781Z,19.70
2024-04-15T07:04:55.682Z,21.98
2024-04-15T07:07:23.716Z,13.38
2024-04-15T07:09:51.889Z,19.13
2024-04-15T07:12:20.896Z,15.13
2024-04-15T07:14:48.349Z,16.30
2024-04-15T07:17:15.718Z,20.48
2024-04-15T07:19:43.082Z,13.90
2024-04-15T07:22:12.004Z,14.18
2024-04-15T07:24:39.553Z,14.40
2024-04-15T07:27:07.053Z,18.08
2024-04-15T07:29:35.444Z,20.10
2024-04-15T07:32:05.635Z,29.60
2024-04-15T07:34:33.175Z,23.65
2024-04-15T07:37:00.596Z,25.17
2024-04-15T07:39:28.037Z,25.92
2024-04-15T07:41:55.299Z,21.52
2024-04-15T07:44:23.488Z,15.75
2024-04-15T07:46:50.862Z,22.27
2024-04-15T07:49:18.235Z,16.38
2024-04-15T07:51:45.628Z,17.15
2024-04-15T07:54:13.026Z,19.05
2024-04-15T07:56:41.752Z,16.77
2024-04-15T07:59:09.412Z,11.85
2024-04-15T08:01:36.857Z,12.13
2024-04-15T08:04:04.547Z,12.60
2024-04-15T08:06:32.074Z,16.52
2024-04-15T08:08:59.377Z,9.65
2024-04-15T08:11:28.403Z,10.85
2024-04-15T08:13:55.885Z,9.70
2024-04-15T08:16:23.271Z,12.88
2024-04-15T08:18:51.863Z,8.63
2024-04-15T08:21:19.201Z,9.07
2024-04-15T08:23:47.216Z,7.93
2024-04-15T08:26:15.423Z,5.55
2024-04-15T08:28:43.256Z,10.77
2024-04-15T08:31:12.218Z,13.20
2024-04-15T08:33:39.637Z,8.45
2024-04-15T08:36:08.220Z,11.13
2024-04-15T08:38:35.567Z,12.50
2024-04-15T08:41:04.658Z,8.48
2024-04-15T08:43:32.048Z,16.20
2024-04-15T08:46:02.345Z,10.98
2024-04-15T08:48:30.694Z,14.57
2024-04-15T08:50:59.258Z,12.07
2024-04-15T08:53:27.201Z,11.95
2024-04-15T08:55:54.534Z,14.68
2024-04-15T08:58:23.540Z,30.88
2024-04-15T09:00:51.672Z,20.27
2024-04-15T09:03:20.338Z,8.85
2024-04-15T09:05:48.107Z,8.00
2024-04-15T09:08:15.536Z,9.63
2024-04-15T09:10:44.568Z,9.55
2024-04-15T09:13:12.010Z,15.18
2024-04-15T09:15:41.068Z,11.77
2024-04-15T09:18:10.398Z,12.38
2024-04-15T09:20:44.917Z,9.63
2024-04-15T09:23:21.964Z,14.63
2024-04-15T09:25:49.619Z,17.65
2024-04-15T09:28:18.778Z,13.38
2024-04-15T09:30:46.540Z,22.88
2024-04-15T09:33:14.755Z,12.43
2024-04-15T09:35:42.154Z,14.65
2024-04-15T09:38:11.742Z,12.50
2024-04-15T09:40:42.679Z,18.60
2024-04-15T09:43:14.426Z,9.50
2024-04-15T09:45:41.941Z,10.02
2024-04-15T09:48:16.589Z,6.30
2024-04-15T09:50:48.098Z,9.82
2024-04-15T09:53:24.536Z,4.60
2024-04-15T09:55:57.124Z,10.15
2024-04-15T09:58:30.382Z,9.93
2024-04-15T10:01:00.560Z,6.65
2024-04-15T10:03:32.042Z,10.50
2024-04-15T10:06:04.849Z,5.57
2024-04-15T10:08:33.059Z,3.22
2024-04-15T10:11:01.549Z,9.93
2024-04-15T10:13:29.344Z,4.45
2024-04-15T10:16:06.713Z,4.55
2024-04-15T10:18:40.656Z,3.88
2024-04-15T10:21:08.262Z,7.20
2024-04-15T10:23:35.716Z,8.63
2024-04-15T10:26:04.238Z,12.02
2024-04-15T10:28:31.698Z,7.53
2024-04-15T10:31:02.437Z,13.65
2024-04-15T10:33:29.909Z,10.82
2024-04-15T10:35:57.227Z,8.07
2024-04-15T10:38:29.047Z,5.93
2024-04-15T10:40:57.053Z,6.82
2024-04-15T10:43:25.986Z,5.55
2024-04-15T10:45:54.321Z,6.07
2024-04-15T10:48:21.930Z,5.55
2024-04-15T10:50:49.259Z,3.80
2024-04-15T10:53:16.716Z,5.95
2024-04-15T10:55:44.118Z,17.00
2024-04-15T10:58:14.320Z,3.33
2024-04-15T11:00:44.540Z,7.57
2024-04-15T11:03:12.806Z,4.13
2024-04-15T11:05:40.457Z,6.57
2024-04-15T11:08:10.272Z,10.40
2024-04-15T11:10:38.972Z,5.65
2024-04-15T11:13:13.853Z,9.50
2024-04-15T11:15:41.828Z,6.70
2024-04-15T11:18:16.529Z,10.52
2024-04-15T11:20:45.279Z,7.20
2024-04-15T11:23:12.959Z,3.92
2024-04-15T11:25:42.555Z,8.73
2024-04-15T11:28:11.094Z,9.75
2024-04-15T11:30:39.511Z,5.68
2024-04-15T11:33:08.880Z,5.15
2024-04-15T11:35:37.473Z,5.93
2024-04-15T11:38:05.146Z,9.20
2024-04-15T11:40:32.739Z,5.13
2024-04-15T11:43:01.517Z,6.40
2024-04-15T11:45:29.050Z,6.75
2024-04-15T11:47:58.459Z,6.95
2024-04-15T11:50:26.567Z,5.82
2024-04-15T11:52:58.500Z,5.25
2024-04-15T11:55:26.987Z,5.15
2024-04-15T11:57:54.705Z,5.78
2024-04-15T12:00:22.213Z,8.60
2024-04-15T12:02:50.324Z,11.68
2024-04-15T12:05:17.872Z,6.55
2024-04-15T12:07:46.695Z,4.90
2024-04-15T12:10:14.255Z,6.40
2024-04-15T12:12:43.189Z,6.78
2024-04-15T12:15:11.850Z,10.43
2024-04-15T12:17:40.056Z,8.20
2024-04-15T12:20:09.488Z,6.05
2024-04-15T12:22:37.265Z,10.15
2024-04-15T12:25:08.468Z,4.20
2024-04-15T12:27:39.645Z,18.65
2024-04-15T12:30:11.944Z,6.22
2024-04-15T12:32:43.684Z,6.75
2024-04-15T12:35:12.576Z,5.75
2024-04-15T12:37:40.996Z,7.80
2024-04-15T12:40:09.545Z,7.40
2024-04-15T12:42:37.130Z,5.93
2024-04-15T12:45:05.454Z,8.95
2024-04-15T12:47:33.653Z,9.07
2024-04-15T12:50:01.367Z,5.28
2024-04-15T12:52:29.796Z,6.20
2024-04-15T12:54:57.474Z,11.00
2024-04-15T12:57:27.813Z,8.77
2024-04-15T12:59:55.103Z,6.50
2024-04-15T13:02:22.494Z,8.90
2024-04-15T13:04:50.064Z,12.10
2024-04-15T13:07:17.537Z,11.48
2024-04-15T13:09:44.954Z,16.08
2024-04-15T13:12:12.870Z,11.02
2024-04-15T13:14:41.053Z,11.63
2024-04-15T13:17:08.906Z,10.25
2024-04-15T13:19:36.293Z,10.63
2024-04-15T13:22:06.913Z,8.70
2024-04-15T13:24:37.560Z,14.50
2024-04-15T13:27:06.310Z,14.98
2024-04-15T13:29:35.404Z,18.33
2024-04-15T13:32:12.954Z,12.98
2024-04-15T13:34:45.446Z,10.43
2024-04-15T13:37:15.016Z,13.50
2024-04-15T13:39:43.472Z,13.80
2024-04-15T13:42:11.582Z,9.18
2024-04-15T13:44:39.228Z,18.48
2024-04-15T13:47:06.850Z,11.95
2024-04-15T13:49:34.899Z,11.05
2024-04-15T13:52:02.747Z,15.30
2024-04-15T13:54:30.644Z,10.63
2024-04-15T13:56:59.304Z,8.30
2024-04-15T13:59:27.925Z,16.08
2024-04-15T14:01:55.438Z,4.38
2024-04-15T14:04:23.139Z,11.93
2024-04-15T14:06:50.773Z,6.28
2024-04-15T14:09:22.151Z,6.10
2024-04-15T14:11:51.306Z,10.45
2024-04-15T14:14:19.245Z,9.10
2024-04-15T14:16:48.147Z,10.23
2024-04-15T14:19:16.195Z,8.18
2024-04-15T14:21:44.917Z,5.97
2024-04-15T14:24:12.600Z,6.63
2024-04-15T14:26:40.041Z,9.10
2024-04-15T14:29:08.986Z,9.50
2024-04-15T14:31:36.535Z,8.63
2024-04-15T14:34:04.113Z,4.05
2024-04-15T14:36:31.934Z,6.68
2024-04-15T14:38:59.554Z,6.85
2024-04-15T14:41:27.683Z,6.68
2024-04-15T14:43:59.471Z,6.38
2024-04-15T14:46:29.401Z,5.38
2024-04-15T14:48:57.558Z,15.10
2024-04-15T14:51:25.695Z,8.52
2024-04-15T14:53:53.179Z,8.75
2024-04-15T14:56:25.052Z,10.48
2024-04-15T14:58:53.715Z,11.38
2024-04-15T15:01:21.227Z,14.07
2024-04-15T15:03:49.058Z,18.60
2024-04-15T15:06:17.883Z,13.98
2024-04-15T15:08:46.141Z,11.77
2024-04-15T15:11:13.789Z,8.15
2024-04-15T15:13:41.940Z,11.63
2024-04-15T15:16:14.137Z,8.43
2024-04-15T15:18:41.940Z,12.88
2024-04-15T15:21:19.896Z,15.48
2024-04-15T15:23:51.256Z,15.32
2024-04-15T15:26:20.567Z,16.25
2024-04-15T15:28:48.875Z,22.35
2024-04-15T15:31:16.303Z,18.30
2024-04-15T15:33:44.296Z,17.00
2024-04-15T15:36:11.895Z,14.52
2024-04-15T15:38:39.449Z,16.30
2024-04-15T15:41:06.860Z,17.80
2024-04-15T15:43:34.330Z,8.45
2024-04-15T15:46:01.769Z,13.73
2024-04-15T15:48:29.315Z,9.50
2024-04-15T15:50:59.100Z,13.27
2024-04-15T15:53:28.352Z,20.63
2024-04-15T15:55:56.241Z,14.15
2024-04-15T15:58:23.638Z,19.20
2024-04-15T16:00:51.485Z,16.27
2024-04-15T16:03:21.819Z,17.50
2024-04-15T16:05:49.674Z,12.77
2024-04-15T16:08:17.124Z,20.10
2024-04-15T16:10:44.812Z,13.93
2024-04-15T16:13:12.158Z,18.02
2024-04-15T16:15:39.699Z,10.73
2024-04-15T16:18:07.799Z,12.05
2024-04-15T16:20:36.272Z,10.95
2024-04-15T16:23:03.927Z,12.77
2024-04-15T16:25:32.168Z,23.55
2024-04-15T16:27:59.683Z,21.67
2024-04-15T16:30:27.134Z,17.15
2024-04-15T16:32:54.949Z,17.45
2024-04-15T16:35:22.303Z,15.73
2024-04-15T16:37:49.797Z,19.05
2024-04-15T16:40:17.284Z,24.92
2024-04-15T16:42:47.314Z,13.13
2024-04-15T16:45:15.923Z,25.27
2024-04-15T16:47:46.285Z,24.60
2024-04-15T16:50:13.950Z,18.17
2024-04-15T16:52:41.372Z,24.67
2024-04-15T16:55:09.013Z,20.27
2024-04-15T16:57:38.487Z,25.15
2024-04-15T17:00:06.989Z,18.30
2024-04-15T17:02:34.429Z,11.48
2024-04-15T17:05:01.972Z,14.48
2024-04-15T17:07:30.961Z,20.00
2024-04-15T17:09:58.771Z,18.05
2024-04-15T17:12:26.287Z,14.15
2024-04-15T17:14:53.732Z,14.52
2024-04-15T17:17:21.992Z,19.98
2024-04-15T17:19:49.333Z,21.42
2024-04-15T17:22:16.598Z,22.35
2024-04-15T17:24:44.237Z,26.88
2024-04-15T17:27:11.802Z,28.40
2024-04-15T17:29:39.522Z,16.75
2024-04-15T17:32:08.145Z,29.17
2024-04-15T17:34:35.821Z,20.58
2024-04-15T17:37:04.615Z,26.73
2024-04-15T17:39:32.567Z,23.23
2024-04-15T17:42:02.791Z,29.25
2024-04-15T17:44:30.234Z,23.08
2024-04-15T17:46:57.595Z,23.80
2024-04-15T17:49:25.228Z,20.98
2024-04-15T17:51:53.495Z,13.32
2024-04-15T17:54:20.859Z,21.90
2024-04-15T17:56:48.258Z,22.67
2024-04-15T17:59:16.515Z,16.70
2024-04-15T18:01:44.940Z,25.27
2024-04-15T18:04:12.799Z,14.70
2024-04-15T18:06:40.290Z,16.23
2024-04-15T18:09:08.198Z,14.85
2024-04-15T18:11:35.562Z,18.42
2024-04-15T18:14:03.073Z,14.43
2024-04-15T18:16:31.281Z,20.30
2024-04-15T18:18:59.496Z,20.50
2024-04-15T18:21:26.963Z,19.73
2024-04-15T18:23:55.092Z,18.08
2024-04-15T18:26:23.671Z,17.15
2024-04-15T18:28:50.970Z,18.63
2024-04-15T18:31:18.495Z,20.85
2024-04-15T18:33:46.565Z,24.63
2024-04-15T18:36:14.139Z,19.27
2024-04-15T18:38:41.653Z,27.13
2024-04-15T18:41:09.100Z,25.90
2024-04-15T18:43:36.521Z,19.27
2024-04-15T18:46:04.302Z,18.38
2024-04-15T18:48:32.030Z,23.10
2024-04-15T18:51:00.023Z,17.98
2024-04-15T18:53:27.949Z,15.65
2024-04-15T18:55:55.456Z,22.90
2024-04-15T18:58:24.443Z,20.38
2024-04-15T19:00:51.808Z,24.88
2024-04-15T19:03:19.260Z,19.60
2024-04-15T19:05:46.636Z,19.70
2024-04-15T19:08:16.348Z,18.85
2024-04-15T19:10:44.348Z,17.90
2024-04-15T19:13:11.916Z,16.15
2024-04-15T19:15:39.311Z,21.02
2024-04-15T19:18:08.465Z,20.95
2024-04-15T19:20:37.300Z,14.00
2024-04-15T19:23:05.293Z,19.38
2024-04-15T19:25:33.887Z,15.25
2024-04-15T19:28:01.596Z,16.58
2024-04-15T19:30:29.655Z,17.58
2024-04-15T19:32:57.405Z,15.10
2024-04-15T19:35:25.341Z,23.08
2024-04-15T19:37:52.767Z,18.35
2024-04-15T19:40:20.392Z,17.58
2024-04-15T19:42:47.872Z,16.55
2024-04-15T19:45:15.332Z,13.55
2024-04-15T19:47:43.051Z,14.48
2024-04-15T19:50:10.474Z,13.05
2024-04-15T19:52:38.269Z,19.63
2024-04-15T19:55:07.267Z,17.55
2024-04-15T19:57:34.748Z,17.63
2024-04-15T20:00:02.156Z,15.55
2024-04-15T20:02:33.371Z,15.45
2024-04-15T20:05:00.895Z,21.70
2024-04-15T20:07:29.419Z,16.73
2024-04-15T20:09:56.825Z,17.15
2024-04-15T20:12:24.285Z,15.50
2024-04-15T20:14:51.552Z,13.45
2024-04-15T20:17:23.522Z,13.57
2024-04-15T20:19:57.994Z,11.98
2024-04-15T20:22:25.483Z,15.30
2024-04-15T20:24:52.831Z,20.00
2024-04-15T20:27:20.326Z,18.17
2024-04-15T20:29:47.796Z,21.33
2024-04-15T20:32:15.144Z,13.20
2024-04-15T20:34:43.269Z,12.52
2024-04-15T20:37:10.985Z,10.77
2024-04-15T20:39:38.412Z,20.33
2024-04-15T20:42:06.002Z,14.60
2024-04-15T20:44:33.356Z,10.50
2024-04-15T20:47:00.739Z,19.77
2024-04-15T20:49:28.618Z,17.65
2024-04-15T20:51:56.401Z,15.05
2024-04-15T20:54:24.091Z,15.35
2024-04-15T20:56:51.564Z,21.13
2024-04-15T20:59:19.554Z,17.60
2024-04-15T21:01:47.012Z,12.07
2024-04-15T21:04:23.150Z,17.42
2024-04-15T21:06:52.301Z,12.43
2024-04-15T21:09:19.932Z,19.52
2024-04-15T21:11:47.469Z,15.45
2024-04-15T21:14:14.999Z,16.17
2024-04-15T21:16:43.336Z,18.25
2024-04-15T21:19:10.801Z,14.60
2024-04-15T21:21:38.212Z,19.90
2024-04-15T21:24:07.794Z,10.90
2024-04-15T21:26:35.253Z,21.02
2024-04-15T21:29:02.764Z,20.02
2024-04-15T21:31:30.310Z,15.27
2024-04-15T21:34:00.652Z,11.38
2024-04-15T21:36:28.351Z,12.70
2024-04-15T21:38:56.454Z,15.93
2024-04-15T21:41:24.032Z,18.48
2024-04-15T21:43:51.557Z,12.63
2024-04-15T21:46:20.121Z,13.05
2024-04-15T21:48:47.900Z,14.00
2024-04-15T21:51:15.252Z,10.88
2024-04-15T21:53:42.936Z,11.45
2024-04-15T21:56:12.568Z,21.73
2024-04-15T21:58:41.355Z,14.75
2024-04-15T22:01:08.974Z,11.43
2024-04-15T22:03:36.470Z,14.07
2024-04-15T22:06:04.763Z,14.90
2024-04-15T22:08:32.965Z,11.90
2024-04-15T22:11:01.006Z,13.43
2024-04-15T22:13:28.651Z,16.65
2024-04-15T22:15:56.212Z,12.95
2024-04-15T22:18:23.753Z,13.60
2024-04-15T22:20:51.177Z,14.38
2024-04-15T22:23:18.618Z,12.02
2024-04-15T22:25:57.468Z,11.75
2024-04-15T22:28:25.222Z,9.38
2024-04-15T22:30:52.570Z,14.02
2024-04-15T22:33:20.839Z,12.25
2024-04-15T22:35:49.841Z,12.48
2024-04-15T22:38:17.330Z,14.00
2024-04-15T22:40:44.667Z,8.68
2024-04-15T22:43:12.952Z,14.57
2024-04-15T22:45:40.568Z,20.92
2024-04-15T22:48:08.086Z,18.23
2024-04-15T22:50:36.101Z,24.98
2024-04-15T22:53:03.559Z,20.67
2024-04-15T22:55:32.679Z,17.38
2024-04-15T22:58:01.352Z,20.27
2024-04-15T23:00:28.659Z,19.10
2024-04-15T23:02:56.015Z,15.95
2024-04-15T23:05:24.975Z,15.02
2024-04-15T23:07:52.353Z,12.43
2024-04-15T23:10:19.641Z,18.40
2024-04-15T23:12:46.993Z,17.02
2024-04-15T23:15:14.582Z,16.10
2024-04-15T23:17:42.009Z,12.95
2024-04-15T23:20:09.627Z,15.45
2024-04-15T23:22:37.483Z,10.65
2024-04-15T23:25:09.625Z,11.63
2024-04-15T23:27:38.211Z,10.60
2024-04-15T23:30:09.597Z,12.05
2024-04-15T23:32:37.257Z,12.77
2024-04-15T23:35:04.847Z,10.02
2024-04-15T23:37:32.734Z,9.45
2024-04-15T23:40:00.028Z,12.32
2024-04-15T23:42:27.311Z,11.98
2024-04-15T23:45:13.395Z,11.82
2024-04-15T23:47:59.335Z,10.00
2024-04-15T23:50:45.634Z,10.95
2024-04-15T23:53:31.615Z,8.82
2024-04-15T23:56:17.512Z,10.60
2024-04-15T23:58:45.324Z,13.13
